Time;durP1;ratioP1;P1;durP2;ratioP2;P2;SDS_P1;SDS_P2;PMS_P1;PMS_P2;Temp;Humidity;BMP_temperature;BMP_pressure;BME280_temperature;BME280_humidity;BME280_pressure;Samples;Min_cycle;Max_cycle;Signal;HPM_P1;HPM_P2
2022/06/09 00:02:24;;;;;;;10.20;3.17;;;16.60;99.90;;;;;;5029903;28;20968;-77
2022/06/09 00:05:12;;;;;;;5.53;3.43;;;16.60;99.90;;;;;;5028635;28;20474;-76
2022/06/09 00:08:00;;;;;;;4.53;3.27;;;16.60;99.90;;;;;;5024417;28;20415;-76
2022/06/09 00:10:53;;;;;;;4.70;2.50;;;16.70;99.90;;;;;;5026232;28;20591;-77
2022/06/09 00:13:39;;;;;;;3.50;2.60;;;16.60;99.90;;;;;;5025268;28;20423;-77
2022/06/09 00:16:25;;;;;;;7.37;2.93;;;16.60;99.90;;;;;;5026262;28;20972;-77
2022/06/09 00:19:13;;;;;;;4.87;3.30;;;16.50;99.90;;;;;;5024178;28;20954;-77
2022/06/09 00:21:59;;;;;;;5.20;3.33;;;16.50;99.90;;;;;;5027901;28;20499;-77
2022/06/09 00:24:44;;;;;;;3.90;3.00;;;16.50;99.90;;;;;;5024623;28;20473;-77
2022/06/09 00:27:30;;;;;;;6.90;3.77;;;16.60;99.90;;;;;;5024969;28;20430;-77
2022/06/09 00:30:17;;;;;;;5.90;3.77;;;16.50;99.90;;;;;;5027412;28;20419;-76
2022/06/09 00:33:03;;;;;;;7.37;3.23;;;16.50;99.90;;;;;;5025412;28;20469;-77
2022/06/09 00:35:51;;;;;;;7.10;3.33;;;16.50;99.90;;;;;;5026767;28;20579;-76
2022/06/09 00:38:36;;;;;;;3.90;3.13;;;16.50;99.90;;;;;;5021249;28;20452;-77
2022/06/09 00:41:22;;;;;;;6.33;4.03;;;16.40;99.90;;;;;;5027354;28;20441;-77
2022/06/09 00:44:16;;;;;;;4.77;3.20;;;16.30;99.90;;;;;;5025570;28;20452;-77
2022/06/09 00:47:06;;;;;;;6.10;3.40;;;16.30;99.90;;;;;;5024042;28;20562;-77
2022/06/09 00:49:59;;;;;;;3.97;3.17;;;16.30;99.90;;;;;;5026216;28;20451;-77
2022/06/09 00:52:57;;;;;;;10.90;3.90;;;16.30;99.90;;;;;;5028753;28;20614;-77
2022/06/09 00:55:44;;;;;;;7.53;3.33;;;16.30;99.90;;;;;;5023482;28;20462;-76
2022/06/09 00:58:34;;;;;;;5.27;3.27;;;16.30;99.90;;;;;;5024037;28;20460;-77
2022/06/09 01:01:21;;;;;;;6.00;3.20;;;16.30;99.90;;;;;;5028370;28;20451;-77
2022/06/09 01:04:10;;;;;;;5.30;3.10;;;16.30;99.90;;;;;;5027531;28;20417;-77
2022/06/09 01:07:02;;;;;;;6.87;3.70;;;16.30;99.90;;;;;;5024045;28;20694;-77
2022/06/09 01:09:49;;;;;;;3.93;3.20;;;16.30;99.90;;;;;;5031244;28;20427;-77
2022/06/09 01:12:40;;;;;;;5.23;3.20;;;16.40;99.90;;;;;;5028391;28;20635;-77
2022/06/09 01:15:31;;;;;;;6.57;3.57;;;16.30;99.90;;;;;;5023620;28;20467;-77
2022/06/09 01:18:26;;;;;;;4.93;3.90;;;16.40;99.90;;;;;;5028490;28;20527;-77
2022/06/09 01:21:25;;;;;;;3.67;3.27;;;16.40;99.90;;;;;;5031445;28;20444;-77
2022/06/09 01:24:35;;;;;;;8.20;3.80;;;16.30;99.90;;;;;;5031926;28;20521;-77
2022/06/09 01:27:42;;;;;;;8.57;4.30;;;16.20;99.90;;;;;;5026684;28;20506;-76
2022/06/09 01:30:47;;;;;;;4.23;3.63;;;16.10;99.90;;;;;;5030377;28;20430;-77
2022/06/09 01:33:40;;;;;;;4.73;3.77;;;16.00;99.90;;;;;;5030409;28;20472;-77
2022/06/09 01:36:33;;;;;;;4.77;3.70;;;16.10;99.90;;;;;;5026843;28;20459;-77
2022/06/09 01:39:27;;;;;;;6.70;4.33;;;16.00;99.90;;;;;;5029815;28;20820;-77
2022/06/09 01:42:25;;;;;;;4.40;3.87;;;15.90;99.90;;;;;;5031180;28;20483;-77
2022/06/09 01:45:16;;;;;;;5.80;3.90;;;15.90;99.90;;;;;;5028522;28;20431;-77
2022/06/09 01:48:06;;;;;;;5.40;4.20;;;15.90;99.90;;;;;;5026349;28;20939;-77
2022/06/09 01:50:56;;;;;;;11.80;4.03;;;15.80;99.90;;;;;;5030524;28;20468;-77
2022/06/09 01:53:45;;;;;;;4.83;3.47;;;15.80;99.90;;;;;;5028076;28;20544;-76
2022/06/09 01:56:36;;;;;;;7.80;4.07;;;15.70;99.90;;;;;;5023690;28;20586;-76
2022/06/09 01:59:26;;;;;;;6.80;4.33;;;15.70;99.90;;;;;;5030121;28;20799;-77
2022/06/09 02:02:16;;;;;;;15.13;4.73;;;15.60;99.90;;;;;;5029978;28;20804;-77
2022/06/09 02:05:06;;;;;;;29.43;6.90;;;15.60;99.90;;;;;;5025977;28;20494;-76
2022/06/09 02:07:56;;;;;;;7.00;4.70;;;15.60;99.90;;;;;;5029908;28;20815;-77
2022/06/09 02:10:45;;;;;;;10.07;5.77;;;15.50;99.90;;;;;;5027978;28;20518;-76
2022/06/09 02:13:35;;;;;;;11.50;6.30;;;15.40;99.90;;;;;;5028618;28;20468;-77
2022/06/09 02:16:22;;;;;;;10.63;6.20;;;15.40;99.90;;;;;;5024911;28;20533;-77
2022/06/09 02:19:08;;;;;;;8.73;5.87;;;15.40;99.90;;;;;;5030041;28;20454;-77
2022/06/09 02:21:55;;;;;;;8.13;6.30;;;15.50;99.90;;;;;;5031066;28;20474;-76
2022/06/09 02:24:41;;;;;;;9.47;7.23;;;15.40;99.90;;;;;;5024857;28;20456;-76
2022/06/09 02:27:26;;;;;;;8.57;6.60;;;15.50;99.90;;;;;;5028619;28;20543;-77
2022/06/09 02:30:12;;;;;;;9.30;6.70;;;15.40;99.90;;;;;;5030360;28;20829;-76
2022/06/09 02:32:58;;;;;;;13.23;7.23;;;15.50;99.90;;;;;;5029522;28;20476;-76
2022/06/09 02:35:44;;;;;;;6.90;6.20;;;15.50;99.90;;;;;;5021283;28;20451;-76
2022/06/09 02:38:31;;;;;;;11.03;6.67;;;15.60;99.90;;;;;;5028893;28;20493;-77
2022/06/09 02:41:17;;;;;;;10.30;6.27;;;15.60;99.90;;;;;;5029514;28;20448;-77
2022/06/09 02:44:02;;;;;;;10.00;5.50;;;15.70;99.90;;;;;;5028107;28;20430;-77
2022/06/09 02:46:48;;;;;;;7.80;6.20;;;15.70;99.90;;;;;;5025703;28;20441;-77
2022/06/09 02:49:34;;;;;;;15.00;6.60;;;15.70;99.90;;;;;;5029631;28;20448;-77
2022/06/09 02:52:19;;;;;;;9.70;5.00;;;15.70;99.90;;;;;;5031423;28;20483;-77
2022/06/09 02:55:07;;;;;;;6.40;5.73;;;15.80;99.90;;;;;;5025380;28;20475;-77
2022/06/09 02:57:53;;;;;;;7.60;3.70;;;15.70;99.90;;;;;;5026833;28;20418;-77
2022/06/09 03:00:39;;;;;;;6.10;3.63;;;15.60;99.90;;;;;;5026048;28;20456;-76
2022/06/09 03:03:24;;;;;;;5.83;3.67;;;15.60;99.90;;;;;;5029382;28;21086;-77
2022/06/09 03:06:10;;;;;;;8.10;4.20;;;15.60;99.90;;;;;;5023947;28;20476;-77
2022/06/09 03:08:56;;;;;;;5.63;3.40;;;15.60;99.90;;;;;;5028087;28;20423;-77
2022/06/09 03:11:43;;;;;;;5.00;3.30;;;15.60;99.90;;;;;;5027007;28;20551;-77
2022/06/09 03:14:29;;;;;;;7.73;3.23;;;15.60;99.90;;;;;;5019733;28;20511;-77
2022/06/09 03:17:14;;;;;;;9.40;3.40;;;15.70;99.90;;;;;;5027391;28;20431;-77
2022/06/09 03:20:00;;;;;;;4.70;3.50;;;15.80;99.90;;;;;;5028602;28;20460;-77
2022/06/09 03:22:46;;;;;;;6.23;3.30;;;15.80;99.90;;;;;;5025321;28;20530;-75
2022/06/09 03:25:31;;;;;;;6.90;4.77;;;15.70;99.90;;;;;;5020474;28;20451;-77
2022/06/09 03:28:19;;;;;;;5.03;3.13;;;15.70;99.90;;;;;;5027485;28;20464;-77
2022/06/09 03:31:04;;;;;;;6.00;3.10;;;15.70;99.90;;;;;;5028219;28;20460;-76
2022/06/09 03:33:50;;;;;;;6.50;2.93;;;15.60;99.90;;;;;;5025559;28;20450;-76
2022/06/09 03:36:36;;;;;;;5.80;3.30;;;15.60;99.90;;;;;;5027570;28;20972;-77
2022/06/09 03:39:22;;;;;;;8.60;3.20;;;15.60;99.90;;;;;;5027853;28;20985;-76
2022/06/09 03:42:08;;;;;;;5.93;3.30;;;15.70;99.90;;;;;;5026400;28;20782;-77
2022/06/09 03:44:55;;;;;;;6.83;2.80;;;15.60;99.90;;;;;;5023732;28;20471;-76
2022/06/09 03:47:41;;;;;;;5.93;2.50;;;15.60;99.90;;;;;;5028080;28;20448;-76
2022/06/09 03:50:30;;;;;;;8.93;3.33;;;15.70;99.90;;;;;;5028016;28;21057;-77
2022/06/09 03:53:15;;;;;;;4.50;2.80;;;15.70;99.90;;;;;;5022581;28;20554;-76
2022/06/09 03:56:01;;;;;;;5.40;2.87;;;15.60;99.90;;;;;;5025232;28;20931;-77
2022/06/09 03:58:48;;;;;;;4.83;3.33;;;15.50;99.90;;;;;;5025132;28;20431;-77
2022/06/09 04:01:34;;;;;;;4.10;2.73;;;15.40;99.90;;;;;;5026807;28;20423;-77
2022/06/09 04:04:20;;;;;;;6.30;2.63;;;15.30;99.90;;;;;;5025465;28;20569;-77
2022/06/09 04:07:06;;;;;;;5.90;3.17;;;15.40;99.90;;;;;;5027005;28;20450;-76
2022/06/09 04:09:52;;;;;;;8.10;2.80;;;15.40;99.90;;;;;;5028195;28;20611;-77
2022/06/09 04:12:38;;;;;;;5.33;2.77;;;15.50;99.90;;;;;;5021493;28;20444;-76
2022/06/09 04:15:24;;;;;;;7.23;2.73;;;15.40;99.90;;;;;;5024281;28;20438;-77
2022/06/09 04:18:11;;;;;;;4.50;2.60;;;15.50;99.90;;;;;;5027940;28;22134;-76
2022/06/09 04:20:57;;;;;;;3.00;2.20;;;15.30;99.90;;;;;;5027439;28;20450;-77
2022/06/09 04:23:43;;;;;;;7.00;3.07;;;15.30;99.90;;;;;;5020236;28;20610;-77
2022/06/09 04:26:34;;;;;;;9.50;3.00;;;15.30;99.90;;;;;;5026691;28;20463;-76
2022/06/09 04:29:20;;;;;;;5.00;2.33;;;15.30;99.90;;;;;;5027031;28;20945;-76
2022/06/09 04:32:06;;;;;;;3.70;2.80;;;15.30;99.90;;;;;;5025781;28;20786;-77
2022/06/09 04:34:54;;;;;;;6.40;2.90;;;15.30;99.90;;;;;;5017059;28;20541;-78
2022/06/09 04:40:43;;;;;;;7.87;4.00;;;15.30;99.90;;;;;;5028176;28;20530;-76
2022/06/09 04:43:29;;;;;;;3.77;2.60;;;15.20;99.90;;;;;;5029482;28;20523;-77
2022/06/09 04:46:17;;;;;;;8.30;3.17;;;15.10;99.90;;;;;;5031695;28;21078;-77
2022/06/09 04:49:02;;;;;;;5.70;3.27;;;15.10;99.90;;;;;;5032281;28;20550;-76
2022/06/09 04:51:49;;;;;;;18.03;3.10;;;15.10;99.90;;;;;;5027127;28;20448;-76
2022/06/09 04:54:36;;;;;;;4.10;2.60;;;15.20;99.90;;;;;;5029091;28;21007;-77
2022/06/09 04:57:22;;;;;;;11.70;3.10;;;15.20;99.90;;;;;;5033780;28;20542;-77
2022/06/09 05:00:10;;;;;;;4.97;3.00;;;15.00;99.90;;;;;;5030411;28;20814;-77
2022/06/09 05:02:57;;;;;;;5.50;2.80;;;15.20;99.90;;;;;;5026436;28;20430;-77
2022/06/09 05:05:45;;;;;;;5.47;2.63;;;15.30;99.90;;;;;;5034631;28;20441;-77
2022/06/09 05:08:32;;;;;;;9.40;2.83;;;15.40;99.90;;;;;;5032084;28;20449;-76
2022/06/09 05:11:19;;;;;;;4.63;2.37;;;15.50;99.90;;;;;;5031913;28;20419;-77
2022/06/09 05:14:04;;;;;;;6.90;3.20;;;15.60;99.90;;;;;;5028488;28;20497;-78
2022/06/09 05:16:50;;;;;;;6.10;3.20;;;15.70;99.90;;;;;;5031760;28;20448;-77
2022/06/09 05:19:35;;;;;;;6.17;2.60;;;15.70;99.90;;;;;;5030175;28;20448;-78
2022/06/09 05:22:21;;;;;;;5.00;2.80;;;15.70;99.90;;;;;;5029447;28;20484;-77
2022/06/09 05:25:09;;;;;;;6.50;3.50;;;15.70;99.90;;;;;;5030754;28;20435;-76
2022/06/09 05:27:55;;;;;;;5.73;3.07;;;15.60;99.90;;;;;;5032460;28;20483;-78
2022/06/09 05:30:41;;;;;;;11.63;3.27;;;15.60;99.90;;;;;;5027551;28;20469;-78
2022/06/09 05:33:27;;;;;;;6.97;4.03;;;15.60;99.90;;;;;;5027610;28;20967;-76
2022/06/09 05:36:12;;;;;;;8.43;4.10;;;15.50;99.90;;;;;;5032085;28;20442;-77
2022/06/09 05:45:08;;;;;;;10.23;4.10;;;15.40;99.90;;;;;;5030649;28;20467;-77
2022/06/09 05:47:54;;;;;;;9.00;3.73;;;15.40;99.90;;;;;;5028242;28;20828;-77
2022/06/09 05:50:39;;;;;;;6.70;3.40;;;15.50;99.90;;;;;;5029902;28;20451;-77
2022/06/09 05:53:25;;;;;;;5.10;2.87;;;15.60;99.90;;;;;;5028362;28;20434;-78
2022/06/09 05:56:11;;;;;;;9.70;3.50;;;15.60;99.90;;;;;;5031232;28;20523;-77
2022/06/09 05:58:59;;;;;;;9.40;3.77;;;15.60;99.90;;;;;;5032929;28;20957;-78
2022/06/09 06:01:45;;;;;;;8.57;3.30;;;15.60;99.90;;;;;;5025875;28;20431;-78
2022/06/09 06:04:31;;;;;;;7.40;3.60;;;15.60;99.90;;;;;;5026739;28;20947;-78
2022/06/09 06:07:17;;;;;;;8.67;4.13;;;15.40;99.90;;;;;;5032537;28;20484;-77
2022/06/09 06:10:02;;;;;;;6.43;3.33;;;15.40;99.90;;;;;;5033390;28;20494;-77
2022/06/09 06:12:48;;;;;;;9.67;3.97;;;15.40;99.90;;;;;;5027303;28;20439;-78
2022/06/09 06:15:35;;;;;;;6.47;3.80;;;15.40;99.90;;;;;;5032281;28;20447;-77
2022/06/09 06:18:21;;;;;;;6.63;3.47;;;15.40;99.90;;;;;;5032377;28;20402;-78
2022/06/09 06:21:07;;;;;;;4.37;2.23;;;15.40;99.90;;;;;;5033480;28;20471;-77
2022/06/09 06:23:55;;;;;;;6.50;3.00;;;15.40;99.90;;;;;;5029995;28;20550;-78
2022/06/09 06:26:40;;;;;;;6.23;3.30;;;15.40;99.90;;;;;;5030319;28;20463;-76
2022/06/09 06:29:27;;;;;;;7.70;3.30;;;15.40;99.90;;;;;;5032522;28;20839;-76
2022/06/09 06:32:14;;;;;;;9.97;2.83;;;15.40;99.90;;;;;;5030579;28;20418;-77
2022/06/09 06:35:01;;;;;;;6.20;3.13;;;15.30;99.90;;;;;;5027652;28;20458;-76
2022/06/09 06:37:46;;;;;;;6.83;3.13;;;15.30;99.90;;;;;;5032597;28;20431;-77
2022/06/09 06:40:32;;;;;;;7.87;3.60;;;15.40;99.90;;;;;;5030905;28;20427;-77
2022/06/09 06:43:18;;;;;;;9.00;3.50;;;15.60;99.90;;;;;;5029937;28;20854;-77
2022/06/09 06:46:04;;;;;;;6.17;2.83;;;15.60;99.90;;;;;;5028278;28;20463;-76
2022/06/09 06:48:53;;;;;;;8.23;3.23;;;15.70;99.90;;;;;;5029475;28;20562;-77
2022/06/09 06:51:38;;;;;;;9.20;3.60;;;15.80;99.90;;;;;;5029980;28;20419;-77
2022/06/09 06:54:24;;;;;;;7.83;3.40;;;15.80;99.90;;;;;;5030533;28;20454;-77
2022/06/09 06:57:09;;;;;;;4.93;2.40;;;15.80;99.90;;;;;;5030586;28;20431;-78
2022/06/09 06:59:55;;;;;;;10.10;3.33;;;15.90;99.90;;;;;;5029619;28;20451;-78
2022/06/09 07:02:41;;;;;;;6.60;2.73;;;15.90;99.90;;;;;;5030123;28;20944;-78
2022/06/09 07:05:28;;;;;;;8.77;2.63;;;16.10;99.90;;;;;;5032792;28;21301;-77
2022/06/09 07:08:16;;;;;;;8.53;3.27;;;16.10;99.90;;;;;;5042049;28;20441;-76
2022/06/09 07:11:01;;;;;;;7.67;3.10;;;16.10;99.90;;;;;;5014713;28;20568;-76
2022/06/09 07:13:46;;;;;;;10.27;4.80;;;16.10;99.90;;;;;;5032388;28;20813;-78
2022/06/09 07:16:33;;;;;;;7.30;3.10;;;16.20;99.90;;;;;;5030741;28;20862;-77
2022/06/09 07:19:19;;;;;;;7.00;3.17;;;16.20;99.90;;;;;;5027572;28;20426;-78
2022/06/09 07:22:07;;;;;;;9.90;3.07;;;16.30;99.90;;;;;;5027307;28;20919;-77
2022/06/09 07:24:56;;;;;;;6.60;2.23;;;16.30;99.90;;;;;;5025373;28;20521;-77
2022/06/09 07:27:42;;;;;;;10.40;3.30;;;16.30;99.90;;;;;;5030900;28;20523;-77
2022/06/09 07:30:28;;;;;;;4.27;2.13;;;16.00;99.90;;;;;;5028586;28;20804;-78
2022/06/09 07:33:16;;;;;;;6.23;2.23;;;15.90;99.90;;;;;;5029992;28;20440;-77
2022/06/09 07:36:01;;;;;;;7.83;2.87;;;15.90;99.90;;;;;;5026114;28;20522;-77
2022/06/09 07:38:49;;;;;;;10.30;2.83;;;16.00;99.90;;;;;;5025502;28;20770;-77
2022/06/09 07:41:35;;;;;;;7.97;2.30;;;16.10;99.90;;;;;;5025591;28;20486;-78
2022/06/09 07:44:21;;;;;;;5.23;2.33;;;16.20;99.90;;;;;;5028613;28;20456;-77
2022/06/09 07:47:06;;;;;;;8.90;2.23;;;16.30;99.90;;;;;;5029483;28;20438;-77
2022/06/09 07:49:52;;;;;;;6.27;2.10;;;16.50;99.90;;;;;;5025982;28;20515;-80
2022/06/09 07:52:39;;;;;;;7.00;2.10;;;16.50;99.90;;;;;;5027462;28;20423;-77
2022/06/09 07:55:27;;;;;;;6.23;1.90;;;16.50;99.90;;;;;;5029518;28;20551;-78
2022/06/09 07:58:12;;;;;;;9.10;2.20;;;16.70;99.90;;;;;;5028298;28;20411;-78
2022/06/09 08:00:58;;;;;;;11.57;2.30;;;16.70;99.90;;;;;;5026713;28;20531;-78
2022/06/09 08:03:44;;;;;;;5.73;2.17;;;16.40;99.90;;;;;;5027115;28;20558;-78
2022/06/09 08:06:30;;;;;;;8.50;3.20;;;16.30;99.90;;;;;;5026678;28;20496;-76
2022/06/09 08:09:16;;;;;;;6.00;1.80;;;16.20;99.90;;;;;;5028608;28;20456;-78
2022/06/09 08:12:04;;;;;;;9.53;2.57;;;16.00;99.90;;;;;;5023144;28;20849;-78
2022/06/09 08:14:49;;;;;;;6.13;1.70;;;16.00;99.90;;;;;;5025855;28;20535;-77
2022/06/09 08:17:35;;;;;;;4.90;2.03;;;15.90;99.90;;;;;;5027319;28;20419;-77
2022/06/09 08:20:22;;;;;;;8.33;2.03;;;16.00;99.90;;;;;;5023261;28;20446;-77
2022/06/09 08:23:10;;;;;;;5.77;2.17;;;16.10;99.90;;;;;;5032134;28;20440;-76
2022/06/09 08:25:58;;;;;;;8.33;2.33;;;16.30;99.90;;;;;;5027475;28;20511;-77
2022/06/09 08:28:46;;;;;;;14.67;2.10;;;16.40;99.90;;;;;;5029110;28;20448;-77
2022/06/09 08:31:32;;;;;;;6.83;1.53;;;16.60;99.90;;;;;;5019884;28;20486;-77
2022/06/09 08:34:17;;;;;;;13.67;3.17;;;16.60;99.90;;;;;;5027718;28;20447;-77
2022/06/09 08:37:04;;;;;;;8.60;2.53;;;16.50;99.90;;;;;;5026103;28;20453;-76
2022/06/09 08:39:50;;;;;;;5.70;2.37;;;16.50;99.90;;;;;;5021285;28;20435;-77
2022/06/09 08:42:46;;;;;;;14.30;2.90;;;16.60;99.90;;;;;;5026875;28;20448;-77
2022/06/09 08:45:36;;;;;;;10.10;2.83;;;16.50;99.90;;;;;;5028019;28;20475;-77
2022/06/09 08:48:24;;;;;;;4.03;1.50;;;16.30;99.90;;;;;;5026557;28;20587;-76
2022/06/09 08:51:16;;;;;;;11.23;1.87;;;16.30;99.90;;;;;;5020663;28;20424;-77
2022/06/09 08:54:10;;;;;;;8.40;2.43;;;16.40;99.90;;;;;;5030411;28;20448;-77
2022/06/09 08:56:57;;;;;;;5.13;1.57;;;16.50;99.90;;;;;;5029359;28;20496;-77
2022/06/09 08:59:44;;;;;;;10.70;2.40;;;16.40;99.90;;;;;;5026308;28;20444;-77
2022/06/09 09:02:38;;;;;;;7.07;1.93;;;16.40;99.90;;;;;;5019671;28;20451;-77
2022/06/09 09:05:31;;;;;;;7.87;2.10;;;16.40;99.90;;;;;;5036019;28;20440;-77
2022/06/09 09:08:17;;;;;;;8.67;2.20;;;16.50;99.90;;;;;;5027521;28;20798;-77
2022/06/09 09:11:26;;;;;;;7.43;2.03;;;16.60;99.90;;;;;;5020311;28;20430;-77
2022/06/09 09:14:17;;;;;;;8.40;1.77;;;16.70;99.90;;;;;;5026174;28;20476;-77
2022/06/09 09:17:14;;;;;;;4.10;1.77;;;16.80;99.90;;;;;;5027235;28;20829;-76
2022/06/09 09:20:06;;;;;;;6.10;1.77;;;16.90;99.90;;;;;;5021294;28;20826;-77
2022/06/09 09:23:01;;;;;;;8.43;2.83;;;16.80;99.90;;;;;;5026720;28;20584;-77
2022/06/09 09:25:56;;;;;;;8.60;2.63;;;16.70;99.90;;;;;;5029423;28;20599;-77
2022/06/09 09:28:47;;;;;;;5.53;1.87;;;16.60;99.90;;;;;;5031490;28;20448;-77
2022/06/09 09:31:45;;;;;;;8.30;2.13;;;16.50;99.90;;;;;;5022666;28;20991;-78
2022/06/09 09:34:34;;;;;;;12.67;2.07;;;16.70;99.90;;;;;;5031957;28;20483;-78
2022/06/09 09:37:26;;;;;;;8.30;2.47;;;16.60;99.90;;;;;;5033637;28;20453;-78
2022/06/09 09:40:22;;;;;;;7.97;2.53;;;16.70;99.90;;;;;;5026362;28;20424;-77
2022/06/09 09:43:11;;;;;;;6.10;2.43;;;16.80;99.90;;;;;;5030231;28;20506;-76
2022/06/09 09:45:57;;;;;;;8.70;2.50;;;16.80;99.90;;;;;;5025717;28;20476;-77
2022/06/09 09:48:44;;;;;;;7.23;2.50;;;16.90;99.90;;;;;;5030820;28;20443;-77
2022/06/09 09:51:36;;;;;;;10.73;2.90;;;16.80;99.90;;;;;;5023432;28;20444;-77
2022/06/09 09:54:30;;;;;;;4.10;2.20;;;16.80;99.90;;;;;;5030130;28;20441;-77
2022/06/09 09:57:18;;;;;;;9.23;2.73;;;16.80;99.90;;;;;;5028696;28;20588;-76
2022/06/09 10:00:25;;;;;;;5.50;2.63;;;16.70;99.90;;;;;;5025220;28;20464;-77
2022/06/09 10:09:39;;;;;;;10.60;1.93;;;17.00;99.90;;;;;;5026515;28;20552;-77
2022/06/09 10:12:28;;;;;;;8.03;2.63;;;17.00;99.90;;;;;;5028701;28;20484;-76
2022/06/09 10:15:18;;;;;;;10.60;2.90;;;17.00;99.90;;;;;;5026896;28;20447;-75
2022/06/09 10:18:13;;;;;;;9.47;3.20;;;17.20;99.90;;;;;;5028814;28;20961;-76
2022/06/09 10:21:09;;;;;;;9.00;2.27;;;17.40;99.90;;;;;;5026767;28;20442;-76
2022/06/09 10:24:00;;;;;;;7.90;2.10;;;17.40;99.90;;;;;;5031339;28;20785;-77
2022/06/09 10:26:51;;;;;;;6.60;2.53;;;17.50;99.90;;;;;;5030956;28;20455;-77
2022/06/09 10:29:46;;;;;;;4.80;1.70;;;17.60;99.90;;;;;;5026116;28;20964;-77
2022/06/09 10:32:39;;;;;;;14.47;2.63;;;17.50;99.90;;;;;;5026338;28;20767;-77
2022/06/09 10:35:33;;;;;;;9.50;3.17;;;17.50;99.90;;;;;;5043417;22;20500;-73
2022/06/09 10:38:26;;;;;;;7.40;2.07;;;17.40;99.90;;;;;;5027387;28;20816;-73
2022/06/09 10:41:16;;;;;;;4.80;2.50;;;17.40;99.90;;;;;;5027104;28;20988;-73
2022/06/09 10:44:08;;;;;;;14.67;2.60;;;17.40;99.90;;;;;;5032665;28;20506;-74
2022/06/09 10:56:53;;;;;;;8.23;2.10;;;18.10;99.90;;;;;;5029213;28;20480;-71
2022/06/09 10:59:45;;;;;;;7.47;2.70;;;18.30;99.90;;;;;;5028316;28;21029;-71
2022/06/09 11:02:33;;;;;;;9.23;2.03;;;18.20;99.90;;;;;;5029843;28;20468;-71
2022/06/09 11:05:22;;;;;;;9.40;2.23;;;18.30;99.90;;;;;;5027279;28;20582;-72
2022/06/09 11:08:17;;;;;;;8.47;2.40;;;18.40;99.90;;;;;;5029249;28;20950;-71
2022/06/09 11:11:11;;;;;;;7.37;1.67;;;18.30;99.90;;;;;;5025909;28;20436;-70
2022/06/09 11:14:07;;;;;;;6.20;2.00;;;18.40;99.90;;;;;;5027767;28;20443;-71
2022/06/09 11:17:05;;;;;;;11.50;1.97;;;18.50;99.90;;;;;;5036576;28;20584;-72
2022/06/09 11:20:02;;;;;;;6.03;2.13;;;18.60;99.90;;;;;;5025076;28;20444;-72
2022/06/09 11:23:01;;;;;;;7.87;2.47;;;18.40;99.90;;;;;;5031429;28;20415;-72
2022/06/09 11:25:55;;;;;;;7.20;1.70;;;18.00;99.90;;;;;;5029301;28;20456;-72
2022/06/09 11:28:53;;;;;;;5.50;1.70;;;17.90;99.90;;;;;;5026219;28;20924;-71
2022/06/09 11:31:54;;;;;;;7.80;2.23;;;17.90;99.90;;;;;;5026510;28;20549;-71
2022/06/09 11:34:58;;;;;;;9.30;2.70;;;17.80;99.90;;;;;;5026340;28;20695;-71
2022/06/09 11:37:58;;;;;;;7.77;2.90;;;17.70;99.90;;;;;;5028476;28;20440;-71
2022/06/09 11:40:49;;;;;;;5.00;2.87;;;17.30;99.90;;;;;;5028794;28;20573;-71
2022/06/09 11:43:51;;;;;;;13.57;2.50;;;17.20;99.90;;;;;;5027388;28;20838;-71
2022/06/09 11:46:39;;;;;;;10.43;2.40;;;17.20;99.90;;;;;;5027005;28;20593;-72
2022/06/09 11:49:30;;;;;;;12.40;2.30;;;17.20;99.90;;;;;;5030004;28;20456;-72
2022/06/09 11:52:20;;;;;;;9.80;2.47;;;17.20;99.90;;;;;;5026004;28;20456;-72
2022/06/09 11:55:25;;;;;;;7.83;2.63;;;17.20;99.90;;;;;;5023958;28;20476;-71
2022/06/09 11:58:10;;;;;;;14.47;2.50;;;17.30;99.90;;;;;;5024630;28;20765;-72
2022/06/09 12:01:08;;;;;;;12.73;2.67;;;17.70;99.90;;;;;;5029340;28;20444;-71
2022/06/09 12:04:12;;;;;;;9.57;3.20;;;18.10;99.90;;;;;;5024105;28;20969;-71
2022/06/09 12:07:13;;;;;;;5.40;1.93;;;18.60;99.90;;;;;;5028216;28;20468;-71
2022/06/09 12:10:24;;;;;;;7.50;2.33;;;19.00;99.90;;;;;;5026272;28;20455;-72
2022/06/09 12:13:19;;;;;;;5.43;1.97;;;19.40;99.90;;;;;;5026489;28;20444;-70
2022/06/09 12:16:21;;;;;;;3.60;1.33;;;19.60;99.90;;;;;;5028243;28;20598;-71
2022/06/09 12:19:19;;;;;;;3.10;1.53;;;19.60;99.90;;;;;;5020839;28;20439;-71
2022/06/09 12:22:32;;;;;;;4.50;2.57;;;19.50;99.90;;;;;;5028069;28;20524;-71
2022/06/09 12:25:32;;;;;;;3.07;1.40;;;19.40;99.90;;;;;;5027666;28;20833;-71
2022/06/09 12:28:55;;;;;;;5.43;1.50;;;19.00;99.90;;;;;;5024368;28;20932;-70
2022/06/09 12:31:41;;;;;;;5.37;1.83;;;18.80;99.90;;;;;;5022431;28;20449;-71
2022/06/09 12:34:27;;;;;;;7.60;2.27;;;18.70;99.90;;;;;;5026490;28;20422;-71
2022/06/09 12:37:19;;;;;;;5.23;1.60;;;18.70;99.90;;;;;;5025917;28;20444;-71
2022/06/09 12:40:13;;;;;;;8.60;1.63;;;18.80;99.90;;;;;;5027694;28;20460;-72
2022/06/09 12:43:07;;;;;;;8.93;1.70;;;19.10;99.90;;;;;;5030224;28;20444;-72
2022/06/09 12:46:01;;;;;;;5.00;1.90;;;19.40;99.90;;;;;;5027413;28;20826;-72
2022/06/09 12:48:48;;;;;;;5.10;1.83;;;19.70;99.90;;;;;;5024628;28;20458;-72
2022/06/09 12:51:35;;;;;;;11.93;2.77;;;19.70;99.90;;;;;;5024007;28;20591;-71
2022/06/09 12:54:26;;;;;;;7.97;2.33;;;19.80;99.90;;;;;;5026386;28;20501;-70
2022/06/09 12:57:20;;;;;;;8.40;1.60;;;20.00;99.90;;;;;;5025132;28;20480;-71
2022/06/09 13:00:15;;;;;;;5.23;2.13;;;19.90;99.90;;;;;;5024935;28;20468;-71
2022/06/09 13:03:01;;;;;;;6.10;1.93;;;20.20;99.90;;;;;;5032224;28;20935;-70
2022/06/09 13:05:46;;;;;;;8.87;1.87;;;20.50;99.90;;;;;;5024987;28;20444;-71
2022/06/09 13:08:32;;;;;;;6.70;1.67;;;20.50;97.50;;;;;;5026888;28;20795;-72
2022/06/09 13:12:50;;;;;;;8.70;2.30;;;20.40;98.50;;;;;;5034313;28;20563;-71
2022/06/09 13:14:28;;;;;;;8.30;2.00;;;20.30;94.90;;;;;;5027479;28;20937;-71
2022/06/09 13:17:19;;;;;;;14.40;2.10;;;20.10;99.80;;;;;;5027838;28;20468;-72
2022/06/09 13:20:12;;;;;;;7.03;1.80;;;19.90;97.00;;;;;;5029291;28;20439;-72
2022/06/09 13:22:57;;;;;;;5.90;2.10;;;20.10;99.90;;;;;;5034104;28;20419;-72
2022/06/09 13:25:46;;;;;;;6.67;1.70;;;20.30;99.20;;;;;;5031221;28;20487;-71
2022/06/09 13:28:36;;;;;;;7.93;2.10;;;20.70;97.10;;;;;;5024546;28;20787;-71
2022/06/09 13:31:34;;;;;;;5.90;1.83;;;21.20;98.20;;;;;;5030546;28;20518;-70
2022/06/09 13:34:35;;;;;;;5.37;1.83;;;21.60;97.60;;;;;;5031882;28;20444;-70
2022/06/09 13:37:22;;;;;;;6.43;2.17;;;21.90;90.60;;;;;;5026993;28;20524;-70
2022/06/09 13:40:22;;;;;;;7.80;1.40;;;22.10;89.30;;;;;;5030579;28;20458;-71
2022/06/09 13:43:17;;;;;;;5.77;1.70;;;22.00;73.70;;;;;;5026076;28;20495;-70
2022/06/09 13:46:08;;;;;;;6.37;1.60;;;21.80;73.50;;;;;;5027960;28;20460;-71
2022/06/09 13:48:57;;;;;;;5.03;2.10;;;21.80;73.00;;;;;;5029181;28;21330;-71
2022/06/09 13:52:01;;;;;;;9.30;2.00;;;22.00;69.10;;;;;;5030150;28;20809;-70
2022/06/09 13:54:51;;;;;;;7.20;2.07;;;21.90;72.60;;;;;;5014434;28;20529;-70
2022/06/09 13:57:40;;;;;;;5.57;1.60;;;21.80;71.30;;;;;;5025874;28;20829;-71
2022/06/09 14:00:29;;;;;;;8.43;1.57;;;22.10;75.70;;;;;;5032923;28;20422;-70
2022/06/09 14:03:17;;;;;;;6.33;2.20;;;22.30;69.40;;;;;;5031540;28;20515;-70
2022/06/09 14:06:07;;;;;;;6.63;1.40;;;22.60;66.50;;;;;;5028126;28;20468;-70
2022/06/09 14:08:55;;;;;;;3.73;1.60;;;22.60;66.40;;;;;;5028867;28;20452;-71
2022/06/09 14:11:41;;;;;;;10.00;1.80;;;22.80;64.60;;;;;;5029355;28;20448;-72
2022/06/09 14:14:27;;;;;;;7.57;1.87;;;22.90;61.20;;;;;;5029202;28;20591;-72
2022/06/09 14:17:19;;;;;;;3.97;1.60;;;23.10;59.90;;;;;;5025632;28;20472;-72
2022/06/09 14:20:07;;;;;;;4.13;1.70;;;23.40;62.90;;;;;;5031481;28;20937;-72
2022/06/09 14:22:53;;;;;;;4.23;1.30;;;23.20;49.70;;;;;;5030903;28;20806;-72
2022/06/09 14:25:40;;;;;;;3.40;1.43;;;22.90;51.00;;;;;;5031927;28;20439;-72
2022/06/09 14:28:26;;;;;;;5.40;1.40;;;22.50;52.90;;;;;;5022853;28;20527;-72
2022/06/09 14:31:13;;;;;;;5.47;1.73;;;22.10;51.10;;;;;;5030996;28;20452;-70
2022/06/09 14:34:00;;;;;;;3.23;1.40;;;21.60;51.90;;;;;;5032787;28;20970;-72
2022/06/09 14:36:45;;;;;;;4.13;1.50;;;21.00;56.60;;;;;;5024730;28;20492;-71
2022/06/09 14:39:31;;;;;;;8.60;1.80;;;20.60;59.20;;;;;;5031642;28;20456;-71
2022/06/09 14:42:19;;;;;;;3.47;1.40;;;20.50;64.60;;;;;;5031382;28;20445;-72
2022/06/09 14:45:06;;;;;;;4.57;1.60;;;20.30;64.00;;;;;;5031625;28;20456;-72
2022/06/09 14:47:52;;;;;;;5.97;1.47;;;20.30;66.00;;;;;;5029098;28;20494;-72
2022/06/09 14:50:38;;;;;;;7.50;2.10;;;20.60;67.80;;;;;;5027483;28;20611;-72
2022/06/09 14:53:24;;;;;;;5.53;1.90;;;21.10;65.80;;;;;;5033491;28;20591;-71
2022/06/09 14:56:14;;;;;;;5.83;1.90;;;21.40;64.30;;;;;;5022032;28;21035;-72
2022/06/09 14:59:01;;;;;;;5.17;1.67;;;21.50;64.10;;;;;;5031738;28;20444;-71
2022/06/09 15:01:47;;;;;;;8.27;2.07;;;21.60;61.50;;;;;;5028307;28;20507;-72
2022/06/09 15:04:33;;;;;;;4.40;1.70;;;22.00;64.40;;;;;;5025402;28;20456;-72
2022/06/09 15:07:21;;;;;;;3.80;1.90;;;22.20;61.20;;;;;;5026238;28;20424;-72